sensor_id;sensor_type;location;lat;lon;timestamp;P1;durP1;ratioP1;P2;durP2;ratioP2
14681;SDS011;7429;52.498;13.480;2023-04-03T00:01:24;7.50;;;4.03;;
14681;SDS011;7429;52.498;13.480;2023-04-03T00:04:30;7.20;;;4.10;;
14681;SDS011;7429;52.498;13.480;2023-04-03T00:07:33;11.80;;;4.70;;
14681;SDS011;7429;52.498;13.480;2023-04-03T00:10:36;7.60;;;4.77;;
14681;SDS011;7429;52.498;13.480;2023-04-03T00:13:41;4.90;;;4.40;;
14681;SDS011;7429;52.498;13.480;2023-04-03T00:16:45;8.07;;;4.57;;
14681;SDS011;7429;52.498;13.480;2023-04-03T00:19:48;9.10;;;4.60;;
14681;SDS011;7429;52.498;13.480;2023-04-03T00:22:51;14.50;;;6.17;;
14681;SDS011;7429;52.498;13.480;2023-04-03T00:25:54;10.33;;;4.90;;
14681;SDS011;7429;52.498;13.480;2023-04-03T00:28:59;6.13;;;4.90;;
14681;SDS011;7429;52.498;13.480;2023-04-03T00:32:02;8.97;;;4.60;;
14681;SDS011;7429;52.498;13.480;2023-04-03T00:35:06;4.80;;;4.30;;
14681;SDS011;7429;52.498;13.480;2023-04-03T00:38:10;4.57;;;4.17;;
14681;SDS011;7429;52.498;13.480;2023-04-03T00:41:13;7.33;;;4.37;;
14681;SDS011;7429;52.498;13.480;2023-04-03T00:44:20;4.57;;;4.20;;
14681;SDS011;7429;52.498;13.480;2023-04-03T00:47:25;10.33;;;4.50;;
14681;SDS011;7429;52.498;13.480;2023-04-03T00:50:29;8.00;;;5.20;;
14681;SDS011;7429;52.498;13.480;2023-04-03T00:53:37;6.50;;;4.40;;
14681;SDS011;7429;52.498;13.480;2023-04-03T00:56:44;5.20;;;4.70;;
14681;SDS011;7429;52.498;13.480;2023-04-03T00:59:50;5.60;;;4.57;;
14681;SDS011;7429;52.498;13.480;2023-04-03T01:02:58;6.27;;;4.47;;
14681;SDS011;7429;52.498;13.480;2023-04-03T01:06:02;6.37;;;4.63;;
14681;SDS011;7429;52.498;13.480;2023-04-03T01:09:06;5.73;;;4.57;;
14681;SDS011;7429;52.498;13.480;2023-04-03T01:12:13;6.30;;;4.50;;
14681;SDS011;7429;52.498;13.480;2023-04-03T01:15:22;5.60;;;4.80;;
14681;SDS011;7429;52.498;13.480;2023-04-03T01:18:27;7.93;;;5.10;;
14681;SDS011;7429;52.498;13.480;2023-04-03T01:21:47;7.40;;;4.37;;
14681;SDS011;7429;52.498;13.480;2023-04-03T01:25:08;9.00;;;4.60;;
14681;SDS011;7429;52.498;13.480;2023-04-03T01:28:12;11.23;;;4.87;;
14681;SDS011;7429;52.498;13.480;2023-04-03T01:31:21;16.17;;;4.63;;
14681;SDS011;7429;52.498;13.480;2023-04-03T01:34:29;5.30;;;4.80;;
14681;SDS011;7429;52.498;13.480;2023-04-03T01:37:34;5.00;;;4.40;;
14681;SDS011;7429;52.498;13.480;2023-04-03T01:40:37;5.90;;;5.07;;
14681;SDS011;7429;52.498;13.480;2023-04-03T01:43:43;9.43;;;4.73;;
14681;SDS011;7429;52.498;13.480;2023-04-03T01:46:46;5.83;;;4.40;;
14681;SDS011;7429;52.498;13.480;2023-04-03T01:49:52;8.77;;;4.90;;
14681;SDS011;7429;52.498;13.480;2023-04-03T01:52:56;9.63;;;4.90;;
14681;SDS011;7429;52.498;13.480;2023-04-03T01:55:59;8.27;;;4.63;;
14681;SDS011;7429;52.498;13.480;2023-04-03T01:59:02;5.00;;;4.53;;
14681;SDS011;7429;52.498;13.480;2023-04-03T02:02:06;6.87;;;4.40;;
14681;SDS011;7429;52.498;13.480;2023-04-03T02:05:14;5.47;;;4.87;;
14681;SDS011;7429;52.498;13.480;2023-04-03T02:08:17;9.03;;;4.67;;
14681;SDS011;7429;52.498;13.480;2023-04-03T02:11:20;5.70;;;5.03;;
14681;SDS011;7429;52.498;13.480;2023-04-03T02:14:25;7.23;;;4.40;;
14681;SDS011;7429;52.498;13.480;2023-04-03T02:17:28;4.60;;;4.27;;
14681;SDS011;7429;52.498;13.480;2023-04-03T02:20:33;7.20;;;5.37;;
14681;SDS011;7429;52.498;13.480;2023-04-03T02:23:37;9.20;;;4.93;;
14681;SDS011;7429;52.498;13.480;2023-04-03T02:26:41;5.30;;;4.20;;
14681;SDS011;7429;52.498;13.480;2023-04-03T02:29:44;10.87;;;5.10;;
14681;SDS011;7429;52.498;13.480;2023-04-03T02:32:47;5.77;;;5.23;;
14681;SDS011;7429;52.498;13.480;2023-04-03T02:35:53;4.90;;;4.33;;
14681;SDS011;7429;52.498;13.480;2023-04-03T02:38:56;9.47;;;5.00;;
14681;SDS011;7429;52.498;13.480;2023-04-03T02:41:59;8.10;;;4.63;;
14681;SDS011;7429;52.498;13.480;2023-04-03T02:45:03;6.63;;;5.00;;
14681;SDS011;7429;52.498;13.480;2023-04-03T02:48:07;6.47;;;4.50;;
14681;SDS011;7429;52.498;13.480;2023-04-03T02:51:12;5.37;;;4.87;;
14681;SDS011;7429;52.498;13.480;2023-04-03T02:54:16;6.77;;;4.83;;
14681;SDS011;7429;52.498;13.480;2023-04-03T02:57:23;8.40;;;6.27;;
14681;SDS011;7429;52.498;13.480;2023-04-03T03:00:26;10.27;;;4.80;;
14681;SDS011;7429;52.498;13.480;2023-04-03T03:03:29;11.53;;;5.53;;
14681;SDS011;7429;52.498;13.480;2023-04-03T03:06:34;5.90;;;5.30;;
14681;SDS011;7429;52.498;13.480;2023-04-03T03:09:38;8.07;;;5.20;;
14681;SDS011;7429;52.498;13.480;2023-04-03T03:12:41;11.63;;;5.10;;
14681;SDS011;7429;52.498;13.480;2023-04-03T03:15:44;6.87;;;5.53;;
14681;SDS011;7429;52.498;13.480;2023-04-03T03:18:47;7.10;;;5.07;;
14681;SDS011;7429;52.498;13.480;2023-04-03T03:21:52;12.67;;;4.90;;
14681;SDS011;7429;52.498;13.480;2023-04-03T03:24:56;10.80;;;5.57;;
14681;SDS011;7429;52.498;13.480;2023-04-03T03:27:59;6.23;;;4.87;;
14681;SDS011;7429;52.498;13.480;2023-04-03T03:31:03;10.17;;;4.87;;
14681;SDS011;7429;52.498;13.480;2023-04-03T03:34:08;8.97;;;5.40;;
14681;SDS011;7429;52.498;13.480;2023-04-03T03:37:13;5.40;;;5.00;;
14681;SDS011;7429;52.498;13.480;2023-04-03T03:40:17;8.23;;;5.13;;
14681;SDS011;7429;52.498;13.480;2023-04-03T03:43:20;8.67;;;4.67;;
14681;SDS011;7429;52.498;13.480;2023-04-03T03:46:24;6.90;;;5.63;;
14681;SDS011;7429;52.498;13.480;2023-04-03T03:49:28;11.63;;;6.17;;
14681;SDS011;7429;52.498;13.480;2023-04-03T03:52:32;5.40;;;4.90;;
14681;SDS011;7429;52.498;13.480;2023-04-03T03:55:36;6.40;;;5.67;;
14681;SDS011;7429;52.498;13.480;2023-04-03T03:58:39;7.63;;;5.87;;
14681;SDS011;7429;52.498;13.480;2023-04-03T04:01:42;5.70;;;5.37;;
14681;SDS011;7429;52.498;13.480;2023-04-03T04:04:46;6.03;;;5.47;;
14681;SDS011;7429;52.498;13.480;2023-04-03T04:07:52;5.07;;;4.53;;
14681;SDS011;7429;52.498;13.480;2023-04-03T04:10:56;9.80;;;5.20;;
14681;SDS011;7429;52.498;13.480;2023-04-03T04:13:59;8.23;;;4.83;;
14681;SDS011;7429;52.498;13.480;2023-04-03T04:17:04;7.63;;;5.77;;
14681;SDS011;7429;52.498;13.480;2023-04-03T04:20:07;13.77;;;5.80;;
14681;SDS011;7429;52.498;13.480;2023-04-03T04:23:14;7.87;;;5.33;;
14681;SDS011;7429;52.498;13.480;2023-04-03T04:26:19;8.43;;;5.00;;
14681;SDS011;7429;52.498;13.480;2023-04-03T04:29:23;9.47;;;5.50;;
14681;SDS011;7429;52.498;13.480;2023-04-03T04:32:27;7.87;;;5.27;;
14681;SDS011;7429;52.498;13.480;2023-04-03T04:35:30;7.77;;;5.50;;
14681;SDS011;7429;52.498;13.480;2023-04-03T04:38:35;7.33;;;5.53;;
14681;SDS011;7429;52.498;13.480;2023-04-03T04:41:38;8.67;;;5.33;;
14681;SDS011;7429;52.498;13.480;2023-04-03T04:44:42;9.03;;;5.37;;
14681;SDS011;7429;52.498;13.480;2023-04-03T04:47:48;12.47;;;5.77;;
14681;SDS011;7429;52.498;13.480;2023-04-03T04:50:53;8.10;;;5.53;;
14681;SDS011;7429;52.498;13.480;2023-04-03T04:53:57;6.30;;;5.10;;
14681;SDS011;7429;52.498;13.480;2023-04-03T04:57:00;9.70;;;5.90;;
14681;SDS011;7429;52.498;13.480;2023-04-03T05:00:05;15.80;;;5.73;;
14681;SDS011;7429;52.498;13.480;2023-04-03T05:03:10;7.07;;;5.73;;
14681;SDS011;7429;52.498;13.480;2023-04-03T05:06:14;11.87;;;5.23;;
14681;SDS011;7429;52.498;13.480;2023-04-03T05:09:18;19.30;;;5.03;;
14681;SDS011;7429;52.498;13.480;2023-04-03T05:12:23;6.43;;;5.47;;
14681;SDS011;7429;52.498;13.480;2023-04-03T05:15:32;8.13;;;5.20;;
14681;SDS011;7429;52.498;13.480;2023-04-03T05:18:35;15.03;;;5.37;;
14681;SDS011;7429;52.498;13.480;2023-04-03T05:21:43;11.90;;;5.47;;
14681;SDS011;7429;52.498;13.480;2023-04-03T05:24:50;7.37;;;5.30;;
14681;SDS011;7429;52.498;13.480;2023-04-03T05:27:55;5.87;;;5.07;;
14681;SDS011;7429;52.498;13.480;2023-04-03T05:30:59;8.60;;;5.03;;
14681;SDS011;7429;52.498;13.480;2023-04-03T05:34:08;7.07;;;5.37;;
14681;SDS011;7429;52.498;13.480;2023-04-03T05:37:12;12.67;;;5.80;;
14681;SDS011;7429;52.498;13.480;2023-04-03T05:40:17;7.77;;;5.03;;
14681;SDS011;7429;52.498;13.480;2023-04-03T05:43:24;11.63;;;5.20;;
14681;SDS011;7429;52.498;13.480;2023-04-03T05:46:28;8.37;;;5.30;;
14681;SDS011;7429;52.498;13.480;2023-04-03T05:49:36;9.57;;;7.57;;
14681;SDS011;7429;52.498;13.480;2023-04-03T05:52:44;5.50;;;5.00;;
14681;SDS011;7429;52.498;13.480;2023-04-03T05:55:50;10.53;;;6.30;;
14681;SDS011;7429;52.498;13.480;2023-04-03T05:58:54;12.23;;;5.83;;
14681;SDS011;7429;52.498;13.480;2023-04-03T06:01:58;7.20;;;6.20;;
14681;SDS011;7429;52.498;13.480;2023-04-03T06:05:03;7.53;;;5.20;;
14681;SDS011;7429;52.498;13.480;2023-04-03T06:08:08;6.70;;;5.13;;
14681;SDS011;7429;52.498;13.480;2023-04-03T06:11:13;11.97;;;5.50;;
14681;SDS011;7429;52.498;13.480;2023-04-03T06:14:16;12.17;;;5.20;;
14681;SDS011;7429;52.498;13.480;2023-04-03T06:17:19;9.13;;;4.97;;
14681;SDS011;7429;52.498;13.480;2023-04-03T06:20:22;6.10;;;4.93;;
14681;SDS011;7429;52.498;13.480;2023-04-03T06:23:27;7.87;;;4.70;;
14681;SDS011;7429;52.498;13.480;2023-04-03T06:26:32;8.60;;;4.93;;
14681;SDS011;7429;52.498;13.480;2023-04-03T06:29:35;8.73;;;5.30;;
14681;SDS011;7429;52.498;13.480;2023-04-03T06:32:38;10.43;;;4.60;;
14681;SDS011;7429;52.498;13.480;2023-04-03T06:35:41;6.77;;;4.40;;
14681;SDS011;7429;52.498;13.480;2023-04-03T06:38:44;11.07;;;4.63;;
14681;SDS011;7429;52.498;13.480;2023-04-03T06:41:49;9.43;;;4.53;;
14681;SDS011;7429;52.498;13.480;2023-04-03T06:45:01;9.90;;;4.07;;
14681;SDS011;7429;52.498;13.480;2023-04-03T06:48:06;9.10;;;4.50;;
14681;SDS011;7429;52.498;13.480;2023-04-03T06:51:13;6.80;;;4.70;;
14681;SDS011;7429;52.498;13.480;2023-04-03T06:54:21;11.50;;;5.07;;
14681;SDS011;7429;52.498;13.480;2023-04-03T06:57:26;5.20;;;4.37;;
14681;SDS011;7429;52.498;13.480;2023-04-03T07:00:29;6.13;;;4.37;;
14681;SDS011;7429;52.498;13.480;2023-04-03T07:03:33;7.70;;;4.13;;
14681;SDS011;7429;52.498;13.480;2023-04-03T07:06:36;8.03;;;4.53;;
14681;SDS011;7429;52.498;13.480;2023-04-03T07:09:39;8.37;;;4.20;;
14681;SDS011;7429;52.498;13.480;2023-04-03T07:12:46;6.13;;;3.80;;
14681;SDS011;7429;52.498;13.480;2023-04-03T07:15:50;5.10;;;4.37;;
14681;SDS011;7429;52.498;13.480;2023-04-03T07:18:53;7.97;;;4.27;;
14681;SDS011;7429;52.498;13.480;2023-04-03T07:21:57;7.67;;;4.67;;
14681;SDS011;7429;52.498;13.480;2023-04-03T07:25:00;6.50;;;4.43;;
14681;SDS011;7429;52.498;13.480;2023-04-03T07:28:05;8.00;;;4.20;;
14681;SDS011;7429;52.498;13.480;2023-04-03T07:31:10;6.80;;;4.00;;
14681;SDS011;7429;52.498;13.480;2023-04-03T07:34:15;6.07;;;4.47;;
14681;SDS011;7429;52.498;13.480;2023-04-03T07:37:18;6.17;;;4.20;;
14681;SDS011;7429;52.498;13.480;2023-04-03T07:40:22;6.10;;;4.50;;
14681;SDS011;7429;52.498;13.480;2023-04-03T07:43:26;6.73;;;3.73;;
14681;SDS011;7429;52.498;13.480;2023-04-03T07:46:29;5.90;;;4.23;;
14681;SDS011;7429;52.498;13.480;2023-04-03T07:49:33;5.57;;;4.03;;
14681;SDS011;7429;52.498;13.480;2023-04-03T07:52:39;4.13;;;3.53;;
14681;SDS011;7429;52.498;13.480;2023-04-03T07:55:42;4.80;;;4.00;;
14681;SDS011;7429;52.498;13.480;2023-04-03T07:58:49;5.37;;;3.63;;
14681;SDS011;7429;52.498;13.480;2023-04-03T08:01:52;6.37;;;4.37;;
14681;SDS011;7429;52.498;13.480;2023-04-03T08:04:55;5.57;;;3.50;;
14681;SDS011;7429;52.498;13.480;2023-04-03T08:07:58;4.23;;;3.43;;
14681;SDS011;7429;52.498;13.480;2023-04-03T08:11:02;3.80;;;3.50;;
14681;SDS011;7429;52.498;13.480;2023-04-03T08:14:08;4.57;;;3.43;;
14681;SDS011;7429;52.498;13.480;2023-04-03T08:17:16;5.07;;;3.60;;
14681;SDS011;7429;52.498;13.480;2023-04-03T08:20:19;5.53;;;4.00;;
14681;SDS011;7429;52.498;13.480;2023-04-03T08:23:23;3.67;;;3.37;;
14681;SDS011;7429;52.498;13.480;2023-04-03T08:26:25;5.37;;;3.50;;
14681;SDS011;7429;52.498;13.480;2023-04-03T08:29:30;4.57;;;3.53;;
14681;SDS011;7429;52.498;13.480;2023-04-03T08:32:35;5.30;;;3.73;;
14681;SDS011;7429;52.498;13.480;2023-04-03T08:35:38;6.90;;;3.57;;
14681;SDS011;7429;52.498;13.480;2023-04-03T08:38:43;8.10;;;3.70;;
14681;SDS011;7429;52.498;13.480;2023-04-03T08:41:46;4.83;;;4.20;;
14681;SDS011;7429;52.498;13.480;2023-04-03T08:44:52;5.30;;;3.97;;
14681;SDS011;7429;52.498;13.480;2023-04-03T08:48:03;8.23;;;4.53;;
14681;SDS011;7429;52.498;13.480;2023-04-03T08:51:10;4.93;;;4.17;;
14681;SDS011;7429;52.498;13.480;2023-04-03T08:54:21;6.70;;;3.60;;
14681;SDS011;7429;52.498;13.480;2023-04-03T08:57:33;4.17;;;3.57;;
14681;SDS011;7429;52.498;13.480;2023-04-03T09:00:43;4.67;;;4.27;;
14681;SDS011;7429;52.498;13.480;2023-04-03T09:03:50;6.67;;;4.03;;
14681;SDS011;7429;52.498;13.480;2023-04-03T09:06:54;5.43;;;3.90;;
14681;SDS011;7429;52.498;13.480;2023-04-03T09:10:01;4.27;;;3.60;;
14681;SDS011;7429;52.498;13.480;2023-04-03T09:13:05;5.77;;;4.10;;
14681;SDS011;7429;52.498;13.480;2023-04-03T09:16:19;3.80;;;3.50;;
14681;SDS011;7429;52.498;13.480;2023-04-03T09:19:36;5.67;;;3.60;;
14681;SDS011;7429;52.498;13.480;2023-04-03T09:22:44;4.20;;;3.60;;
14681;SDS011;7429;52.498;13.480;2023-04-03T09:25:55;5.47;;;3.40;;
14681;SDS011;7429;52.498;13.480;2023-04-03T09:29:06;4.13;;;3.43;;
14681;SDS011;7429;52.498;13.480;2023-04-03T09:32:21;5.23;;;3.37;;
14681;SDS011;7429;52.498;13.480;2023-04-03T09:35:30;4.23;;;3.70;;
14681;SDS011;7429;52.498;13.480;2023-04-03T09:39:02;3.47;;;3.17;;
14681;SDS011;7429;52.498;13.480;2023-04-03T09:42:14;3.70;;;3.40;;
14681;SDS011;7429;52.498;13.480;2023-04-03T09:45:24;6.63;;;3.40;;
14681;SDS011;7429;52.498;13.480;2023-04-03T09:48:31;3.83;;;3.37;;
14681;SDS011;7429;52.498;13.480;2023-04-03T09:51:36;4.87;;;3.30;;
14681;SDS011;7429;52.498;13.480;2023-04-03T09:54:40;5.37;;;3.37;;
14681;SDS011;7429;52.498;13.480;2023-04-03T09:57:43;6.60;;;3.67;;
14681;SDS011;7429;52.498;13.480;2023-04-03T10:00:57;5.40;;;3.90;;
14681;SDS011;7429;52.498;13.480;2023-04-03T10:04:05;4.60;;;3.53;;
14681;SDS011;7429;52.498;13.480;2023-04-03T10:07:31;3.53;;;3.23;;
14681;SDS011;7429;52.498;13.480;2023-04-03T10:10:37;3.97;;;3.63;;
14681;SDS011;7429;52.498;13.480;2023-04-03T10:13:51;6.50;;;3.77;;
14681;SDS011;7429;52.498;13.480;2023-04-03T10:16:59;6.00;;;3.30;;
14681;SDS011;7429;52.498;13.480;2023-04-03T10:20:21;3.87;;;3.23;;
14681;SDS011;7429;52.498;13.480;2023-04-03T10:23:33;4.63;;;3.70;;
14681;SDS011;7429;52.498;13.480;2023-04-03T10:26:45;7.20;;;3.10;;
14681;SDS011;7429;52.498;13.480;2023-04-03T10:29:57;8.30;;;3.50;;
14681;SDS011;7429;52.498;13.480;2023-04-03T10:33:14;4.73;;;3.17;;
14681;SDS011;7429;52.498;13.480;2023-04-03T10:36:32;3.93;;;3.53;;
14681;SDS011;7429;52.498;13.480;2023-04-03T10:39:43;3.83;;;3.63;;
14681;SDS011;7429;52.498;13.480;2023-04-03T10:42:58;4.90;;;3.23;;
14681;SDS011;7429;52.498;13.480;2023-04-03T10:46:09;4.33;;;3.70;;
14681;SDS011;7429;52.498;13.480;2023-04-03T10:49:21;4.43;;;3.33;;
14681;SDS011;7429;52.498;13.480;2023-04-03T10:52:37;4.30;;;3.60;;
14681;SDS011;7429;52.498;13.480;2023-04-03T10:55:48;3.90;;;3.13;;
14681;SDS011;7429;52.498;13.480;2023-04-03T10:58:57;3.13;;;2.83;;
14681;SDS011;7429;52.498;13.480;2023-04-03T11:02:06;3.27;;;2.97;;
14681;SDS011;7429;52.498;13.480;2023-04-03T11:05:18;6.23;;;3.00;;
14681;SDS011;7429;52.498;13.480;2023-04-03T11:08:33;6.00;;;3.63;;
14681;SDS011;7429;52.498;13.480;2023-04-03T11:11:41;5.67;;;3.73;;
14681;SDS011;7429;52.498;13.480;2023-04-03T11:14:46;3.63;;;3.33;;
14681;SDS011;7429;52.498;13.480;2023-04-03T11:17:53;6.27;;;3.80;;
14681;SDS011;7429;52.498;13.480;2023-04-03T11:21:01;4.47;;;3.40;;
14681;SDS011;7429;52.498;13.480;2023-04-03T11:24:14;3.80;;;3.50;;
14681;SDS011;7429;52.498;13.480;2023-04-03T11:27:24;5.90;;;3.73;;
14681;SDS011;7429;52.498;13.480;2023-04-03T11:30:32;6.50;;;3.63;;
14681;SDS011;7429;52.498;13.480;2023-04-03T11:33:43;6.00;;;3.63;;
14681;SDS011;7429;52.498;13.480;2023-04-03T11:36:56;3.97;;;3.30;;
14681;SDS011;7429;52.498;13.480;2023-04-03T11:40:05;4.13;;;3.43;;
14681;SDS011;7429;52.498;13.480;2023-04-03T11:43:24;5.33;;;3.37;;
14681;SDS011;7429;52.498;13.480;2023-04-03T11:46:49;4.30;;;3.53;;
14681;SDS011;7429;52.498;13.480;2023-04-03T11:49:59;4.30;;;3.90;;
14681;SDS011;7429;52.498;13.480;2023-04-03T11:56:35;4.17;;;3.53;;
14681;SDS011;7429;52.498;13.480;2023-04-03T11:59:38;6.33;;;3.33;;
14681;SDS011;7429;52.498;13.480;2023-04-03T12:02:41;3.73;;;3.43;;
14681;SDS011;7429;52.498;13.480;2023-04-03T12:05:56;4.37;;;4.03;;
14681;SDS011;7429;52.498;13.480;2023-04-03T12:13:34;4.10;;;3.33;;
14681;SDS011;7429;52.498;13.480;2023-04-03T12:16:42;4.13;;;3.53;;
14681;SDS011;7429;52.498;13.480;2023-04-03T12:19:48;5.17;;;3.63;;
14681;SDS011;7429;52.498;13.480;2023-04-03T12:23:06;5.63;;;3.83;;
14681;SDS011;7429;52.498;13.480;2023-04-03T12:26:18;4.17;;;2.90;;
14681;SDS011;7429;52.498;13.480;2023-04-03T12:29:27;3.67;;;3.03;;
14681;SDS011;7429;52.498;13.480;2023-04-03T12:32:48;3.30;;;3.10;;
14681;SDS011;7429;52.498;13.480;2023-04-03T12:36:23;3.80;;;3.50;;
14681;SDS011;7429;52.498;13.480;2023-04-03T12:39:40;6.20;;;3.13;;
14681;SDS011;7429;52.498;13.480;2023-04-03T12:42:59;4.03;;;3.23;;
14681;SDS011;7429;52.498;13.480;2023-04-03T12:46:21;3.30;;;3.10;;
14681;SDS011;7429;52.498;13.480;2023-04-03T12:49:39;5.07;;;3.70;;
14681;SDS011;7429;52.498;13.480;2023-04-03T12:52:47;3.40;;;2.73;;
14681;SDS011;7429;52.498;13.480;2023-04-03T12:59:24;3.37;;;3.17;;
14681;SDS011;7429;52.498;13.480;2023-04-03T13:02:30;4.53;;;3.43;;
14681;SDS011;7429;52.498;13.480;2023-04-03T13:05:35;3.47;;;3.23;;
14681;SDS011;7429;52.498;13.480;2023-04-03T13:08:47;3.37;;;3.07;;
14681;SDS011;7429;52.498;13.480;2023-04-03T13:11:54;4.47;;;3.20;;
14681;SDS011;7429;52.498;13.480;2023-04-03T13:15:03;8.33;;;3.50;;
14681;SDS011;7429;52.498;13.480;2023-04-03T13:21:42;4.67;;;3.57;;
14681;SDS011;7429;52.498;13.480;2023-04-03T13:24:50;3.43;;;3.13;;
14681;SDS011;7429;52.498;13.480;2023-04-03T13:27:54;3.63;;;3.10;;
14681;SDS011;7429;52.498;13.480;2023-04-03T13:31:06;3.63;;;3.00;;
14681;SDS011;7429;52.498;13.480;2023-04-03T13:34:20;3.43;;;3.13;;
14681;SDS011;7429;52.498;13.480;2023-04-03T13:37:25;5.43;;;3.73;;
14681;SDS011;7429;52.498;13.480;2023-04-03T13:40:31;3.50;;;3.30;;
14681;SDS011;7429;52.498;13.480;2023-04-03T13:43:47;6.77;;;3.23;;
14681;SDS011;7429;52.498;13.480;2023-04-03T13:46:58;3.87;;;3.50;;
14681;SDS011;7429;52.498;13.480;2023-04-03T13:50:13;5.70;;;3.33;;
14681;SDS011;7429;52.498;13.480;2023-04-03T13:53:19;4.73;;;3.67;;
14681;SDS011;7429;52.498;13.480;2023-04-03T13:56:25;4.63;;;3.20;;
14681;SDS011;7429;52.498;13.480;2023-04-03T13:59:34;4.70;;;3.13;;
14681;SDS011;7429;52.498;13.480;2023-04-03T14:02:38;5.23;;;3.40;;
14681;SDS011;7429;52.498;13.480;2023-04-03T14:05:43;5.73;;;3.30;;
14681;SDS011;7429;52.498;13.480;2023-04-03T14:08:47;4.17;;;3.67;;
14681;SDS011;7429;52.498;13.480;2023-04-03T14:11:52;3.97;;;3.17;;
14681;SDS011;7429;52.498;13.480;2023-04-03T14:14:58;3.10;;;2.90;;
14681;SDS011;7429;52.498;13.480;2023-04-03T14:18:03;3.83;;;3.37;;
14681;SDS011;7429;52.498;13.480;2023-04-03T14:21:10;4.00;;;3.70;;
14681;SDS011;7429;52.498;13.480;2023-04-03T14:24:14;3.53;;;3.23;;
14681;SDS011;7429;52.498;13.480;2023-04-03T14:27:19;4.07;;;3.40;;
14681;SDS011;7429;52.498;13.480;2023-04-03T14:30:25;4.83;;;3.90;;
14681;SDS011;7429;52.498;13.480;2023-04-03T14:33:33;4.87;;;3.87;;
14681;SDS011;7429;52.498;13.480;2023-04-03T14:36:39;3.33;;;3.13;;
14681;SDS011;7429;52.498;13.480;2023-04-03T14:39:45;5.77;;;3.83;;
14681;SDS011;7429;52.498;13.480;2023-04-03T14:42:49;5.47;;;3.80;;
14681;SDS011;7429;52.498;13.480;2023-04-03T14:45:52;6.57;;;3.47;;
14681;SDS011;7429;52.498;13.480;2023-04-03T14:48:56;3.63;;;2.90;;
14681;SDS011;7429;52.498;13.480;2023-04-03T14:52:01;6.87;;;3.43;;
14681;SDS011;7429;52.498;13.480;2023-04-03T14:55:04;4.70;;;3.57;;
14681;SDS011;7429;52.498;13.480;2023-04-03T14:58:11;3.13;;;2.93;;
14681;SDS011;7429;52.498;13.480;2023-04-03T15:01:17;5.20;;;3.27;;
14681;SDS011;7429;52.498;13.480;2023-04-03T15:04:20;3.80;;;3.50;;
14681;SDS011;7429;52.498;13.480;2023-04-03T15:07:26;3.80;;;3.50;;
14681;SDS011;7429;52.498;13.480;2023-04-03T15:10:31;4.00;;;3.17;;
14681;SDS011;7429;52.498;13.480;2023-04-03T15:13:35;4.30;;;4.00;;
14681;SDS011;7429;52.498;13.480;2023-04-03T15:16:39;6.93;;;3.70;;
14681;SDS011;7429;52.498;13.480;2023-04-03T15:19:42;4.47;;;3.60;;
14681;SDS011;7429;52.498;13.480;2023-04-03T15:22:47;6.40;;;3.40;;
14681;SDS011;7429;52.498;13.480;2023-04-03T15:25:51;3.37;;;3.07;;
14681;SDS011;7429;52.498;13.480;2023-04-03T15:28:56;4.77;;;3.77;;
14681;SDS011;7429;52.498;13.480;2023-04-03T15:31:59;4.40;;;4.00;;
14681;SDS011;7429;52.498;13.480;2023-04-03T15:35:03;4.53;;;3.47;;
14681;SDS011;7429;52.498;13.480;2023-04-03T15:38:08;9.17;;;3.80;;
14681;SDS011;7429;52.498;13.480;2023-04-03T15:41:12;4.13;;;3.43;;
14681;SDS011;7429;52.498;13.480;2023-04-03T15:44:15;3.80;;;3.50;;
14681;SDS011;7429;52.498;13.480;2023-04-03T15:47:19;5.50;;;4.10;;
14681;SDS011;7429;52.498;13.480;2023-04-03T16:07:20;4.27;;;3.43;;
14681;SDS011;7429;52.498;13.480;2023-04-03T16:10:29;5.30;;;3.87;;
14681;SDS011;7429;52.498;13.480;2023-04-03T16:13:32;5.70;;;3.80;;
14681;SDS011;7429;52.498;13.480;2023-04-03T16:16:36;7.07;;;3.97;;
14681;SDS011;7429;52.498;13.480;2023-04-03T16:19:40;6.33;;;3.57;;
14681;SDS011;7429;52.498;13.480;2023-04-03T16:22:45;4.13;;;3.73;;
14681;SDS011;7429;52.498;13.480;2023-04-03T16:25:48;4.93;;;3.73;;
14681;SDS011;7429;52.498;13.480;2023-04-03T16:28:51;6.77;;;4.60;;
14681;SDS011;7429;52.498;13.480;2023-04-03T16:31:55;7.13;;;3.63;;
14681;SDS011;7429;52.498;13.480;2023-04-03T16:34:59;3.87;;;3.07;;
14681;SDS011;7429;52.498;13.480;2023-04-03T16:38:04;4.73;;;3.60;;
14681;SDS011;7429;52.498;13.480;2023-04-03T16:41:08;6.00;;;4.03;;
14681;SDS011;7429;52.498;13.480;2023-04-03T16:44:11;9.17;;;3.70;;
14681;SDS011;7429;52.498;13.480;2023-04-03T16:47:14;3.73;;;3.33;;
14681;SDS011;7429;52.498;13.480;2023-04-03T16:50:20;3.97;;;3.67;;
14681;SDS011;7429;52.498;13.480;2023-04-03T16:53:25;4.70;;;4.03;;
14681;SDS011;7429;52.498;13.480;2023-04-03T16:56:28;3.87;;;3.47;;
14681;SDS011;7429;52.498;13.480;2023-04-03T16:59:32;5.33;;;3.57;;
14681;SDS011;7429;52.498;13.480;2023-04-03T17:02:35;6.47;;;4.33;;
14681;SDS011;7429;52.498;13.480;2023-04-03T17:05:38;5.00;;;4.47;;
14681;SDS011;7429;52.498;13.480;2023-04-03T17:08:44;5.23;;;4.37;;
14681;SDS011;7429;52.498;13.480;2023-04-03T17:12:00;6.37;;;4.17;;
14681;SDS011;7429;52.498;13.480;2023-04-03T17:15:04;7.40;;;4.60;;
14681;SDS011;7429;52.498;13.480;2023-04-03T17:18:08;7.63;;;6.93;;
14681;SDS011;7429;52.498;13.480;2023-04-03T17:21:11;8.17;;;3.70;;
14681;SDS011;7429;52.498;13.480;2023-04-03T17:24:38;8.23;;;5.53;;
14681;SDS011;7429;52.498;13.480;2023-04-03T17:27:41;6.27;;;4.40;;
14681;SDS011;7429;52.498;13.480;2023-04-03T17:30:44;4.90;;;4.50;;
14681;SDS011;7429;52.498;13.480;2023-04-03T17:33:47;5.67;;;3.60;;
14681;SDS011;7429;52.498;13.480;2023-04-03T17:36:50;4.13;;;3.60;;
14681;SDS011;7429;52.498;13.480;2023-04-03T17:39:55;5.63;;;5.03;;
14681;SDS011;7429;52.498;13.480;2023-04-03T17:42:58;5.37;;;4.63;;
14681;SDS011;7429;52.498;13.480;2023-04-03T17:46:02;5.80;;;3.40;;
14681;SDS011;7429;52.498;13.480;2023-04-03T17:49:06;5.83;;;3.67;;
14681;SDS011;7429;52.498;13.480;2023-04-03T17:52:11;4.67;;;4.23;;
14681;SDS011;7429;52.498;13.480;2023-04-03T17:55:15;5.33;;;3.70;;
14681;SDS011;7429;52.498;13.480;2023-04-03T17:58:19;4.93;;;4.40;;
14681;SDS011;7429;52.498;13.480;2023-04-03T18:01:23;4.70;;;4.30;;
14681;SDS011;7429;52.498;13.480;2023-04-03T18:04:28;6.63;;;5.47;;
14681;SDS011;7429;52.498;13.480;2023-04-03T18:07:32;4.07;;;3.63;;
14681;SDS011;7429;52.498;13.480;2023-04-03T18:10:36;7.27;;;4.17;;
14681;SDS011;7429;52.498;13.480;2023-04-03T18:13:39;9.47;;;5.07;;
14681;SDS011;7429;52.498;13.480;2023-04-03T18:16:43;7.73;;;4.33;;
14681;SDS011;7429;52.498;13.480;2023-04-03T18:19:47;5.37;;;4.27;;
14681;SDS011;7429;52.498;13.480;2023-04-03T18:22:51;5.73;;;4.43;;
14681;SDS011;7429;52.498;13.480;2023-04-03T18:25:56;8.73;;;6.30;;
14681;SDS011;7429;52.498;13.480;2023-04-03T18:29:03;6.03;;;4.37;;
14681;SDS011;7429;52.498;13.480;2023-04-03T18:32:07;6.37;;;3.90;;
14681;SDS011;7429;52.498;13.480;2023-04-03T18:35:15;12.57;;;6.97;;
14681;SDS011;7429;52.498;13.480;2023-04-03T18:38:18;5.53;;;4.70;;
14681;SDS011;7429;52.498;13.480;2023-04-03T18:41:24;11.37;;;6.73;;
14681;SDS011;7429;52.498;13.480;2023-04-03T18:44:30;5.37;;;4.47;;
14681;SDS011;7429;52.498;13.480;2023-04-03T18:47:35;4.87;;;4.50;;
14681;SDS011;7429;52.498;13.480;2023-04-03T18:50:38;9.07;;;6.17;;
14681;SDS011;7429;52.498;13.480;2023-04-03T18:53:42;7.73;;;6.90;;
14681;SDS011;7429;52.498;13.480;2023-04-03T18:56:49;7.97;;;5.77;;
14681;SDS011;7429;52.498;13.480;2023-04-03T18:59:52;5.07;;;4.53;;
14681;SDS011;7429;52.498;13.480;2023-04-03T19:02:55;4.13;;;3.83;;
14681;SDS011;7429;52.498;13.480;2023-04-03T19:05:59;7.60;;;6.40;;
14681;SDS011;7429;52.498;13.480;2023-04-03T19:09:04;4.73;;;4.00;;
14681;SDS011;7429;52.498;13.480;2023-04-03T19:12:09;8.30;;;4.40;;